PWSweather.com
Personal Weather Stations
Station Observations
WATERF01
WaterfordIE

WaterfordIE

Lat: 52.2412507, Lon: -7.1414691

Elevation: 65

Station Type: Davis Vantage Vue

www.waterfordweather.com

High Low Average
Temperature 41.4°F5.2°C 31.7°F-0.2°C 37.3°F2.9°C
Dew Point 35.5°F1.9°C 30.2°F-1.0°C 33.2°F0.7°C
Winds 11.5 mph 18.5 kmh Calm Calm 5.0 mph WNW8.0 kmh WNW
Wind Gusts 20.7 mph33.3 kmh -- 9.0 mph14.5 kmh
Humidity 94% 77% 85%
Pressure 30.28 in1025.4 mb 30.09 in1019.0 mb -
Precipitation 0.00 in0.0 mm - -
Hour Temp Dew Point Humidity Winds Wind Gusts Pressure Precip Precip Rate Daily Precip Total
12:00 AM 38.0°F3.3°C 32.7°F0.4°C 81% 6.9 mph NW11.1 kmh NW 13.8 mph22.2 kmh 30.09 in1019.0 mb - 0.00 in0.0 mm 0.00 in0.0 mm
12:10 AM 38.1°F3.4°C 32.5°F0.3°C 80% 8.1 mph WNW13.0 kmh WNW 13.8 mph22.2 kmh 30.09 in1019.0 mb - 0.00 in0.0 mm 0.00 in0.0 mm
12:20 AM 38.1°F3.4°C 32.5°F0.3°C 80% 9.2 mph NW14.8 kmh NW 13.8 mph22.2 kmh 30.09 in1019.0 mb - 0.00 in0.0 mm 0.00 in0.0 mm
12:30 AM 38.1°F3.4°C 32.8°F0.4°C 81% 8.1 mph NW13.0 kmh NW 13.8 mph22.2 kmh 30.09 in1019.0 mb - 0.00 in0.0 mm 0.00 in0.0 mm
12:40 AM 37.7°F3.2°C 32.7°F0.4°C 82% 8.1 mph NW13.0 kmh NW 9.2 mph14.8 kmh 30.10 in1019.3 mb - 0.00 in0.0 mm 0.00 in0.0 mm
12:50 AM 37.6°F3.1°C 32.6°F0.3°C 82% 8.1 mph NW13.0 kmh NW 19.6 mph31.5 kmh 30.10 in1019.3 mb - 0.00 in0.0 mm 0.00 in0.0 mm
01:00 AM 37.6°F3.1°C 32.6°F0.3°C 82% 6.9 mph WNW11.1 kmh WNW 12.7 mph20.4 kmh 30.10 in1019.3 mb - 0.00 in0.0 mm 0.00 in0.0 mm
01:10 AM 37.5°F3.1°C 32.8°F0.4°C 83% 6.9 mph WNW11.1 kmh WNW 11.5 mph18.5 kmh 30.10 in1019.3 mb - 0.00 in0.0 mm 0.00 in0.0 mm
01:20 AM 37.4°F3.0°C 32.7°F0.4°C 83% 4.6 mph NW7.4 kmh NW 8.1 mph13.0 kmh 30.11 in1019.6 mb - 0.00 in0.0 mm 0.00 in0.0 mm
01:30 AM 37.4°F3.0°C 32.7°F0.4°C 83% 8.1 mph WNW13.0 kmh WNW 11.5 mph18.5 kmh 30.11 in1019.6 mb - 0.00 in0.0 mm 0.00 in0.0 mm
01:40 AM 37.2°F2.9°C 32.9°F0.5°C 84% 5.8 mph WNW9.3 kmh WNW 13.8 mph22.2 kmh 30.11 in1019.6 mb - 0.00 in0.0 mm 0.00 in0.0 mm
01:50 AM 37.3°F2.9°C 32.6°F0.3°C 83% 8.1 mph NW13.0 kmh NW 20.7 mph33.3 kmh 30.11 in1019.6 mb - 0.00 in0.0 mm 0.00 in0.0 mm
02:00 AM 37.6°F3.1°C 32.6°F0.3°C 82% 9.2 mph NW14.8 kmh NW 13.8 mph22.2 kmh 30.11 in1019.6 mb - 0.00 in0.0 mm 0.00 in0.0 mm
02:10 AM 37.6°F3.1°C 32.9°F0.5°C 83% 11.5 mph NW18.5 kmh NW 19.6 mph31.5 kmh 30.11 in1019.6 mb - 0.00 in0.0 mm 0.00 in0.0 mm
02:20 AM 37.6°F3.1°C 32.9°F0.5°C 83% 6.9 mph NW11.1 kmh NW 12.7 mph20.4 kmh 30.11 in1019.6 mb - 0.00 in0.0 mm 0.00 in0.0 mm
02:30 AM 37.6°F3.1°C 32.9°F0.5°C 83% 8.1 mph WNW13.0 kmh WNW 16.1 mph25.9 kmh 30.11 in1019.6 mb - 0.00 in0.0 mm 0.00 in0.0 mm
02:40 AM 37.5°F3.1°C 32.5°F0.3°C 82% 6.9 mph NW11.1 kmh NW 11.5 mph18.5 kmh 30.12 in1020.0 mb - 0.00 in0.0 mm 0.00 in0.0 mm
02:50 AM 37.3°F2.9°C 32.6°F0.3°C 83% 6.9 mph NW11.1 kmh NW 15.0 mph24.1 kmh 30.12 in1020.0 mb - 0.00 in0.0 mm 0.00 in0.0 mm
03:00 AM 37.0°F2.8°C 32.6°F0.3°C 84% 8.1 mph WNW13.0 kmh WNW 15.0 mph24.1 kmh 30.13 in1020.3 mb - 0.00 in0.0 mm 0.00 in0.0 mm
03:10 AM 36.7°F2.6°C 32.9°F0.5°C 86% 6.9 mph WNW11.1 kmh WNW 12.7 mph20.4 kmh 30.13 in1020.3 mb - 0.00 in0.0 mm 0.00 in0.0 mm
03:20 AM 36.4°F2.4°C 32.9°F0.5°C 87% 8.1 mph NW13.0 kmh NW 12.7 mph20.4 kmh 30.13 in1020.3 mb - 0.00 in0.0 mm 0.00 in0.0 mm
03:30 AM 36.3°F2.4°C 32.8°F0.4°C 87% 9.2 mph NW14.8 kmh NW 19.6 mph31.5 kmh 30.14 in1020.7 mb - 0.00 in0.0 mm 0.00 in0.0 mm
03:40 AM 36.3°F2.4°C 32.8°F0.4°C 87% 8.1 mph NW13.0 kmh NW 18.4 mph29.6 kmh 30.14 in1020.7 mb - 0.00 in0.0 mm 0.00 in0.0 mm
03:50 AM 36.2°F2.3°C 32.7°F0.4°C 87% 6.9 mph NW11.1 kmh NW 16.1 mph25.9 kmh 30.14 in1020.7 mb - 0.00 in0.0 mm 0.00 in0.0 mm
04:00 AM 36.2°F2.3°C 32.7°F0.4°C 87% 8.1 mph NW13.0 kmh NW 11.5 mph18.5 kmh 30.14 in1020.7 mb - 0.00 in0.0 mm 0.00 in0.0 mm
04:10 AM 36.1°F2.3°C 32.6°F0.3°C 87% 5.8 mph NW9.3 kmh NW 10.4 mph16.7 kmh 30.15 in1021.0 mb - 0.00 in0.0 mm 0.00 in0.0 mm
04:20 AM 36.0°F2.2°C 32.8°F0.4°C 88% 6.9 mph NW11.1 kmh NW 9.2 mph14.8 kmh 30.16 in1021.3 mb - 0.00 in0.0 mm 0.00 in0.0 mm
04:30 AM 36.0°F2.2°C 32.8°F0.4°C 88% 6.9 mph WNW11.1 kmh WNW 13.8 mph22.2 kmh 30.16 in1021.3 mb - 0.00 in0.0 mm 0.00 in0.0 mm
04:40 AM 36.0°F2.2°C 32.5°F0.3°C 87% 6.9 mph NW11.1 kmh NW 13.8 mph22.2 kmh 30.16 in1021.3 mb - 0.00 in0.0 mm 0.00 in0.0 mm
04:50 AM 36.0°F2.2°C 32.2°F0.1°C 86% 9.2 mph NW14.8 kmh NW 13.8 mph22.2 kmh 30.17 in1021.7 mb - 0.00 in0.0 mm 0.00 in0.0 mm
05:00 AM 36.0°F2.2°C 32.2°F0.1°C 86% 8.1 mph NW13.0 kmh NW 11.5 mph18.5 kmh 30.17 in1021.7 mb - 0.00 in0.0 mm 0.00 in0.0 mm
05:10 AM 36.1°F2.3°C 32.3°F0.2°C 86% 9.2 mph NW14.8 kmh NW 12.7 mph20.4 kmh 30.17 in1021.7 mb - 0.00 in0.0 mm 0.00 in0.0 mm
05:20 AM 36.0°F2.2°C 32.2°F0.1°C 86% 8.1 mph NW13.0 kmh NW 12.7 mph20.4 kmh 30.17 in1021.7 mb - 0.00 in0.0 mm 0.00 in0.0 mm
05:30 AM 35.9°F2.2°C 32.1°F0.1°C 86% 9.2 mph NW14.8 kmh NW 13.8 mph22.2 kmh 30.18 in1022.0 mb - 0.00 in0.0 mm 0.00 in0.0 mm
05:40 AM 36.0°F2.2°C 32.2°F0.1°C 86% 9.2 mph NW14.8 kmh NW 13.8 mph22.2 kmh 30.18 in1022.0 mb - 0.00 in0.0 mm 0.00 in0.0 mm
05:50 AM 36.1°F2.3°C 32.3°F0.2°C 86% 6.9 mph NW11.1 kmh NW 11.5 mph18.5 kmh 30.18 in1022.0 mb - 0.00 in0.0 mm 0.00 in0.0 mm
06:00 AM 36.0°F2.2°C 32.3°F0.2°C 86% 6.9 mph NW11.1 kmh NW 9.2 mph14.8 kmh 30.18 in1022.0 mb - 0.00 in0.0 mm 0.00 in0.0 mm
06:10 AM 36.1°F2.3°C 32.3°F0.2°C 86% 9.2 mph NW14.8 kmh NW 16.1 mph25.9 kmh 30.19 in1022.4 mb - 0.00 in0.0 mm 0.00 in0.0 mm
06:20 AM 36.0°F2.2°C 32.2°F0.1°C 86% 6.9 mph NW11.1 kmh NW 13.8 mph22.2 kmh 30.20 in1022.7 mb - 0.00 in0.0 mm 0.00 in0.0 mm
06:30 AM 35.8°F2.1°C 32.0°F0.0°C 86% 4.6 mph NW7.4 kmh NW 6.9 mph11.1 kmh 30.20 in1022.7 mb - 0.00 in0.0 mm 0.00 in0.0 mm
06:40 AM 35.6°F2.0°C 32.1°F0.1°C 87% 5.8 mph NW9.3 kmh NW 8.1 mph13.0 kmh 30.21 in1023.0 mb - 0.00 in0.0 mm 0.00 in0.0 mm
06:50 AM 35.3°F1.8°C 31.8°F-0.1°C 87% 4.6 mph NW7.4 kmh NW 8.1 mph13.0 kmh 30.21 in1023.0 mb - 0.00 in0.0 mm 0.00 in0.0 mm
07:00 AM 35.2°F1.8°C 31.7°F-0.2°C 87% 4.6 mph NW7.4 kmh NW 6.9 mph11.1 kmh 30.22 in1023.4 mb - 0.00 in0.0 mm 0.00 in0.0 mm
07:10 AM 35.2°F1.8°C 31.7°F-0.2°C 87% 4.6 mph NW7.4 kmh NW 6.9 mph11.1 kmh 30.22 in1023.4 mb - 0.00 in0.0 mm 0.00 in0.0 mm
07:20 AM 35.1°F1.7°C 31.9°F-0.1°C 88% 5.8 mph NW9.3 kmh NW 8.1 mph13.0 kmh 30.22 in1023.4 mb - 0.00 in0.0 mm 0.00 in0.0 mm
07:30 AM 35.1°F1.7°C 31.6°F-0.2°C 87% 5.8 mph NW9.3 kmh NW 8.1 mph13.0 kmh 30.23 in1023.7 mb - 0.00 in0.0 mm 0.00 in0.0 mm
07:40 AM 35.1°F1.7°C 31.6°F-0.2°C 87% 4.6 mph NW7.4 kmh NW 6.9 mph11.1 kmh 30.23 in1023.7 mb - 0.00 in0.0 mm 0.00 in0.0 mm
07:50 AM 35.0°F1.7°C 31.8°F-0.1°C 88% 3.5 mph W5.6 kmh W 5.8 mph9.3 kmh 30.23 in1023.7 mb - 0.00 in0.0 mm 0.00 in0.0 mm
08:00 AM 34.4°F1.3°C 31.2°F-0.4°C 88% 1.2 mph WNW1.9 kmh WNW 2.3 mph3.7 kmh 30.23 in1023.7 mb - 0.00 in0.0 mm 0.00 in0.0 mm
08:10 AM 33.8°F1.0°C 30.9°F-0.6°C 89% 1.2 mph W1.9 kmh W 2.3 mph3.7 kmh 30.23 in1023.7 mb - 0.00 in0.0 mm 0.00 in0.0 mm
08:20 AM 33.5°F0.8°C 30.9°F-0.6°C 90% 2.3 mph W3.7 kmh W 2.3 mph3.7 kmh 30.24 in1024.0 mb - 0.00 in0.0 mm 0.00 in0.0 mm
08:30 AM 33.5°F0.8°C 30.6°F-0.8°C 89% 1.2 mph W1.9 kmh W 4.6 mph7.4 kmh 30.25 in1024.4 mb - 0.00 in0.0 mm 0.00 in0.0 mm
08:40 AM 33.4°F0.8°C 30.8°F-0.7°C 90% 2.3 mph NW3.7 kmh NW 5.8 mph9.3 kmh 30.25 in1024.4 mb - 0.00 in0.0 mm 0.00 in0.0 mm
08:50 AM 33.8°F1.0°C 31.2°F-0.4°C 90% 1.2 mph NW1.9 kmh NW 5.8 mph9.3 kmh 30.24 in1024.0 mb - 0.00 in0.0 mm 0.00 in0.0 mm
09:00 AM 34.1°F1.2°C 31.2°F-0.4°C 89% 4.6 mph NW7.4 kmh NW 6.9 mph11.1 kmh 30.24 in1024.0 mb - 0.00 in0.0 mm 0.00 in0.0 mm
09:10 AM 34.5°F1.4°C 31.3°F-0.4°C 88% 3.5 mph WNW5.6 kmh WNW 6.9 mph11.1 kmh 30.24 in1024.0 mb - 0.00 in0.0 mm 0.00 in0.0 mm
09:20 AM 34.8°F1.6°C 31.6°F-0.2°C 88% 4.6 mph NW7.4 kmh NW 11.5 mph18.5 kmh 30.25 in1024.4 mb - 0.00 in0.0 mm 0.00 in0.0 mm
09:30 AM 35.6°F2.0°C 31.8°F-0.1°C 86% 8.1 mph NW13.0 kmh NW 11.5 mph18.5 kmh 30.24 in1024.0 mb - 0.00 in0.0 mm 0.00 in0.0 mm
09:40 AM 36.3°F2.4°C 31.9°F-0.1°C 84% 9.2 mph NW14.8 kmh NW 12.7 mph20.4 kmh 30.25 in1024.4 mb - 0.00 in0.0 mm 0.00 in0.0 mm
09:50 AM 36.5°F2.5°C 32.1°F0.1°C 84% 6.9 mph NW11.1 kmh NW 11.5 mph18.5 kmh 30.25 in1024.4 mb - 0.00 in0.0 mm 0.00 in0.0 mm
10:00 AM 36.7°F2.6°C 32.3°F0.2°C 84% 6.9 mph NW11.1 kmh NW 11.5 mph18.5 kmh 30.25 in1024.4 mb - 0.00 in0.0 mm 0.00 in0.0 mm
10:10 AM 36.8°F2.7°C 32.4°F0.2°C 84% 2.3 mph NW3.7 kmh NW 2.3 mph3.7 kmh 30.26 in1024.7 mb - 0.00 in0.0 mm 0.00 in0.0 mm
10:20 AM 36.8°F2.7°C 32.4°F0.2°C 84% 5.8 mph NW9.3 kmh NW 11.5 mph18.5 kmh 30.25 in1024.4 mb - 0.00 in0.0 mm 0.00 in0.0 mm
10:30 AM 36.9°F2.7°C 32.5°F0.3°C 84% 5.8 mph WNW9.3 kmh WNW 11.5 mph18.5 kmh 30.26 in1024.7 mb - 0.00 in0.0 mm 0.00 in0.0 mm
10:40 AM 37.2°F2.9°C 32.8°F0.4°C 84% 6.9 mph WNW11.1 kmh WNW 12.7 mph20.4 kmh 30.26 in1024.7 mb - 0.00 in0.0 mm 0.00 in0.0 mm
10:50 AM 37.9°F3.3°C 32.9°F0.5°C 82% 8.1 mph NW13.0 kmh NW 12.7 mph20.4 kmh 30.26 in1024.7 mb - 0.00 in0.0 mm 0.00 in0.0 mm
11:00 AM 38.4°F3.6°C 33.4°F0.8°C 82% 9.2 mph NW14.8 kmh NW 16.1 mph25.9 kmh 30.26 in1024.7 mb - 0.00 in0.0 mm 0.00 in0.0 mm
11:10 AM 38.6°F3.7°C 33.6°F0.9°C 82% 6.9 mph WNW11.1 kmh WNW 11.5 mph18.5 kmh 30.26 in1024.7 mb - 0.00 in0.0 mm 0.00 in0.0 mm
11:20 AM 38.9°F3.8°C 33.6°F0.9°C 81% 8.1 mph NW13.0 kmh NW 15.0 mph24.1 kmh 30.26 in1024.7 mb - 0.00 in0.0 mm 0.00 in0.0 mm
11:30 AM 39.2°F4.0°C 33.5°F0.8°C 80% 6.9 mph NW11.1 kmh NW 11.5 mph18.5 kmh 30.26 in1024.7 mb - 0.00 in0.0 mm 0.00 in0.0 mm
11:40 AM 39.4°F4.1°C 33.7°F0.9°C 80% 6.9 mph NW11.1 kmh NW 11.5 mph18.5 kmh 30.26 in1024.7 mb - 0.00 in0.0 mm 0.00 in0.0 mm
11:50 AM 39.5°F4.2°C 33.8°F1.0°C 80% 6.9 mph NW11.1 kmh NW 11.5 mph18.5 kmh 30.25 in1024.4 mb - 0.00 in0.0 mm 0.00 in0.0 mm
12:00 PM 39.5°F4.2°C 33.8°F1.0°C 80% 4.6 mph WNW7.4 kmh WNW 11.5 mph18.5 kmh 30.26 in1024.7 mb - 0.00 in0.0 mm 0.00 in0.0 mm
12:10 PM 39.8°F4.3°C 34.1°F1.2°C 80% 8.1 mph NW13.0 kmh NW 11.5 mph18.5 kmh 30.26 in1024.7 mb - 0.00 in0.0 mm 0.00 in0.0 mm
12:20 PM 40.1°F4.5°C 34.4°F1.3°C 80% 6.9 mph NW11.1 kmh NW 13.8 mph22.2 kmh 30.26 in1024.7 mb - 0.00 in0.0 mm 0.00 in0.0 mm
12:30 PM 40.2°F4.6°C 34.5°F1.4°C 80% 5.8 mph NW9.3 kmh NW 9.2 mph14.8 kmh 30.26 in1024.7 mb - 0.00 in0.0 mm 0.00 in0.0 mm
12:40 PM 40.3°F4.6°C 34.3°F1.3°C 79% 5.8 mph WNW9.3 kmh WNW 9.2 mph14.8 kmh 30.27 in1025.1 mb - 0.00 in0.0 mm 0.00 in0.0 mm
12:50 PM 40.4°F4.7°C 34.4°F1.3°C 79% 8.1 mph NW13.0 kmh NW 13.8 mph22.2 kmh 30.27 in1025.1 mb - 0.00 in0.0 mm 0.00 in0.0 mm
01:00 PM 40.3°F4.6°C 34.6°F1.4°C 80% 6.9 mph W11.1 kmh W 9.2 mph14.8 kmh 30.26 in1024.7 mb - 0.00 in0.0 mm 0.00 in0.0 mm
01:10 PM 40.3°F4.6°C 34.9°F1.6°C 81% 6.9 mph WNW11.1 kmh WNW 11.5 mph18.5 kmh 30.26 in1024.7 mb - 0.00 in0.0 mm 0.00 in0.0 mm
01:20 PM 40.4°F4.7°C 35.0°F1.7°C 81% 5.8 mph WNW9.3 kmh WNW 8.1 mph13.0 kmh 30.26 in1024.7 mb - 0.00 in0.0 mm 0.00 in0.0 mm
01:30 PM 40.4°F4.7°C 34.7°F1.5°C 80% 6.9 mph W11.1 kmh W 13.8 mph22.2 kmh 30.27 in1025.1 mb - 0.00 in0.0 mm 0.00 in0.0 mm
01:40 PM 40.2°F4.6°C 34.8°F1.6°C 81% 5.8 mph WNW9.3 kmh WNW 8.1 mph13.0 kmh 30.27 in1025.1 mb - 0.00 in0.0 mm 0.00 in0.0 mm
01:50 PM 40.3°F4.6°C 34.9°F1.6°C 81% 5.8 mph WNW9.3 kmh WNW 9.2 mph14.8 kmh 30.27 in1025.1 mb - 0.00 in0.0 mm 0.00 in0.0 mm
02:00 PM 40.4°F4.7°C 35.0°F1.7°C 81% 5.8 mph WNW9.3 kmh WNW 9.2 mph14.8 kmh 30.27 in1025.1 mb - 0.00 in0.0 mm 0.00 in0.0 mm
02:10 PM 40.6°F4.8°C 35.2°F1.8°C 81% 4.6 mph W7.4 kmh W 9.2 mph14.8 kmh 30.27 in1025.1 mb - 0.00 in0.0 mm 0.00 in0.0 mm
02:20 PM 40.9°F4.9°C 35.2°F1.8°C 80% 6.9 mph WNW11.1 kmh WNW 13.8 mph22.2 kmh 30.27 in1025.1 mb - 0.00 in0.0 mm 0.00 in0.0 mm
02:30 PM 41.2°F5.1°C 35.5°F1.9°C 80% 6.9 mph W11.1 kmh W 11.5 mph18.5 kmh 30.26 in1024.7 mb - 0.00 in0.0 mm 0.00 in0.0 mm
02:40 PM 41.4°F5.2°C 35.4°F1.9°C 79% 4.6 mph NW7.4 kmh NW 13.8 mph22.2 kmh 30.26 in1024.7 mb - 0.00 in0.0 mm 0.00 in0.0 mm
02:50 PM 41.4°F5.2°C 34.7°F1.5°C 77% 9.2 mph WNW14.8 kmh WNW 13.8 mph22.2 kmh 30.26 in1024.7 mb - 0.00 in0.0 mm 0.00 in0.0 mm
03:00 PM 41.3°F5.2°C 35.0°F1.7°C 78% 3.5 mph W5.6 kmh W 8.1 mph13.0 kmh 30.26 in1024.7 mb - 0.00 in0.0 mm 0.00 in0.0 mm
03:10 PM 41.0°F5.0°C 35.0°F1.7°C 79% 5.8 mph WNW9.3 kmh WNW 8.1 mph13.0 kmh 30.26 in1024.7 mb - 0.00 in0.0 mm 0.00 in0.0 mm
03:20 PM 40.9°F4.9°C 35.5°F1.9°C 81% 5.8 mph WNW9.3 kmh WNW 8.1 mph13.0 kmh 30.26 in1024.7 mb - 0.00 in0.0 mm 0.00 in0.0 mm
03:30 PM 40.8°F4.9°C 35.1°F1.7°C 80% 5.8 mph W9.3 kmh W 8.1 mph13.0 kmh 30.26 in1024.7 mb - 0.00 in0.0 mm 0.00 in0.0 mm
03:40 PM 40.8°F4.9°C 35.4°F1.9°C 81% 5.8 mph W9.3 kmh W 11.5 mph18.5 kmh 30.27 in1025.1 mb - 0.00 in0.0 mm 0.00 in0.0 mm
03:50 PM 40.5°F4.7°C 35.1°F1.7°C 81% 1.2 mph WNW1.9 kmh WNW 5.8 mph9.3 kmh 30.27 in1025.1 mb - 0.00 in0.0 mm 0.00 in0.0 mm
04:00 PM 40.0°F4.4°C 34.9°F1.6°C 82% 3.5 mph W5.6 kmh W 4.6 mph7.4 kmh 30.27 in1025.1 mb - 0.00 in0.0 mm 0.00 in0.0 mm
04:10 PM 39.6°F4.2°C 34.6°F1.4°C 82% 3.5 mph W5.6 kmh W 5.8 mph9.3 kmh 30.27 in1025.1 mb - 0.00 in0.0 mm 0.00 in0.0 mm
04:20 PM 39.2°F4.0°C 34.2°F1.2°C 82% 2.3 mph WSW3.7 kmh WSW 5.8 mph9.3 kmh 30.26 in1024.7 mb - 0.00 in0.0 mm 0.00 in0.0 mm
04:30 PM 38.7°F3.7°C 34.0°F1.1°C 83% 4.6 mph W7.4 kmh W 5.8 mph9.3 kmh 30.27 in1025.1 mb - 0.00 in0.0 mm 0.00 in0.0 mm
04:40 PM 38.8°F3.8°C 34.0°F1.1°C 83% 3.5 mph W5.6 kmh W 5.8 mph9.3 kmh 30.27 in1025.1 mb - 0.00 in0.0 mm 0.00 in0.0 mm
04:50 PM 38.4°F3.6°C 33.7°F0.9°C 83% 1.2 mph W1.9 kmh W 2.3 mph3.7 kmh 30.27 in1025.1 mb - 0.00 in0.0 mm 0.00 in0.0 mm
05:00 PM 37.9°F3.3°C 33.5°F0.8°C 84% 2.3 mph W3.7 kmh W 4.6 mph7.4 kmh 30.27 in1025.1 mb - 0.00 in0.0 mm 0.00 in0.0 mm
05:10 PM 37.3°F2.9°C 32.9°F0.5°C 84% 2.3 mph W3.7 kmh W 5.8 mph9.3 kmh 30.27 in1025.1 mb - 0.00 in0.0 mm 0.00 in0.0 mm
05:20 PM 37.1°F2.8°C 33.0°F0.6°C 85% 2.3 mph WSW3.7 kmh WSW 4.6 mph7.4 kmh 30.27 in1025.1 mb - 0.00 in0.0 mm 0.00 in0.0 mm
05:30 PM 37.1°F2.8°C 33.0°F0.6°C 85% 4.6 mph W7.4 kmh W 8.1 mph13.0 kmh 30.28 in1025.4 mb - 0.00 in0.0 mm 0.00 in0.0 mm
05:40 PM 37.5°F3.1°C 33.1°F0.6°C 84% 4.6 mph W7.4 kmh W 5.8 mph9.3 kmh 30.28 in1025.4 mb - 0.00 in0.0 mm 0.00 in0.0 mm
05:50 PM 37.9°F3.3°C 33.5°F0.8°C 84% 4.6 mph W7.4 kmh W 5.8 mph9.3 kmh 30.28 in1025.4 mb - 0.00 in0.0 mm 0.00 in0.0 mm
06:00 PM 38.3°F3.5°C 33.6°F0.9°C 83% 6.9 mph WNW11.1 kmh WNW 9.2 mph14.8 kmh 30.28 in1025.4 mb - 0.00 in0.0 mm 0.00 in0.0 mm
06:10 PM 38.5°F3.6°C 33.8°F1.0°C 83% 3.5 mph W5.6 kmh W 6.9 mph11.1 kmh 30.28 in1025.4 mb - 0.00 in0.0 mm 0.00 in0.0 mm
06:20 PM 38.4°F3.6°C 33.7°F0.9°C 83% 3.5 mph W5.6 kmh W 5.8 mph9.3 kmh 30.28 in1025.4 mb - 0.00 in0.0 mm 0.00 in0.0 mm
06:30 PM 38.3°F3.5°C 33.6°F0.9°C 83% 4.6 mph W7.4 kmh W 6.9 mph11.1 kmh 30.28 in1025.4 mb - 0.00 in0.0 mm 0.00 in0.0 mm
06:40 PM 38.4°F3.6°C 34.0°F1.1°C 84% 5.8 mph W9.3 kmh W 11.5 mph18.5 kmh 30.28 in1025.4 mb - 0.00 in0.0 mm 0.00 in0.0 mm
06:50 PM 38.4°F3.6°C 34.0°F1.1°C 84% 4.6 mph W7.4 kmh W 5.8 mph9.3 kmh 30.28 in1025.4 mb - 0.00 in0.0 mm 0.00 in0.0 mm
07:00 PM 38.4°F3.6°C 34.0°F1.1°C 84% 2.3 mph W3.7 kmh W 5.8 mph9.3 kmh 30.28 in1025.4 mb - 0.00 in0.0 mm 0.00 in0.0 mm
07:10 PM 38.6°F3.7°C 34.5°F1.4°C 85% 3.5 mph WNW5.6 kmh WNW 11.5 mph18.5 kmh 30.28 in1025.4 mb - 0.00 in0.0 mm 0.00 in0.0 mm
07:20 PM 39.0°F3.9°C 34.8°F1.6°C 85% 4.6 mph WNW7.4 kmh WNW 5.8 mph9.3 kmh 30.28 in1025.4 mb - 0.00 in0.0 mm 0.00 in0.0 mm
07:30 PM 39.0°F3.9°C 34.8°F1.6°C 85% 4.6 mph WNW7.4 kmh WNW 9.2 mph14.8 kmh 30.28 in1025.4 mb - 0.00 in0.0 mm 0.00 in0.0 mm
07:40 PM 38.5°F3.6°C 34.7°F1.5°C 86% 2.3 mph WNW3.7 kmh WNW 6.9 mph11.1 kmh 30.28 in1025.4 mb - 0.00 in0.0 mm 0.00 in0.0 mm
07:50 PM 38.2°F3.4°C 34.7°F1.5°C 87% 1.2 mph WNW1.9 kmh WNW 2.3 mph3.7 kmh 30.28 in1025.4 mb - 0.00 in0.0 mm 0.00 in0.0 mm
08:00 PM 38.0°F3.3°C 34.8°F1.6°C 88% 1.2 mph W1.9 kmh W 5.8 mph9.3 kmh 30.28 in1025.4 mb - 0.00 in0.0 mm 0.00 in0.0 mm
08:10 PM 37.6°F3.1°C 34.4°F1.3°C 88% Calm Calm 5.8 mph9.3 kmh 30.28 in1025.4 mb - 0.00 in0.0 mm 0.00 in0.0 mm
08:20 PM 37.5°F3.1°C 34.3°F1.3°C 88% 1.2 mph NW1.9 kmh NW 2.3 mph3.7 kmh 30.28 in1025.4 mb - 0.00 in0.0 mm 0.00 in0.0 mm
08:30 PM 37.6°F3.1°C 34.7°F1.5°C 89% 1.2 mph WNW1.9 kmh WNW 2.3 mph3.7 kmh 30.28 in1025.4 mb - 0.00 in0.0 mm 0.00 in0.0 mm
08:40 PM 37.5°F3.1°C 34.3°F1.3°C 88% Calm Calm 2.3 mph3.7 kmh 30.28 in1025.4 mb - 0.00 in0.0 mm 0.00 in0.0 mm
08:50 PM 37.5°F3.1°C 34.5°F1.4°C 89% 2.3 mph NW3.7 kmh NW 5.8 mph9.3 kmh 30.28 in1025.4 mb - 0.00 in0.0 mm 0.00 in0.0 mm
09:00 PM 37.4°F3.0°C 34.5°F1.4°C 89% 3.5 mph WNW5.6 kmh WNW 6.9 mph11.1 kmh 30.28 in1025.4 mb - 0.00 in0.0 mm 0.00 in0.0 mm
09:10 PM 37.3°F2.9°C 34.4°F1.3°C 89% 3.5 mph WNW5.6 kmh WNW 8.1 mph13.0 kmh 30.28 in1025.4 mb - 0.00 in0.0 mm 0.00 in0.0 mm
09:20 PM 37.2°F2.9°C 34.5°F1.4°C 90% 5.8 mph NW9.3 kmh NW 11.5 mph18.5 kmh 30.27 in1025.1 mb - 0.00 in0.0 mm 0.00 in0.0 mm
09:30 PM 37.1°F2.8°C 34.4°F1.3°C 90% 1.2 mph NW1.9 kmh NW 4.6 mph7.4 kmh 30.27 in1025.1 mb - 0.00 in0.0 mm 0.00 in0.0 mm
09:40 PM 36.7°F2.6°C 34.1°F1.2°C 90% Calm Calm 1.2 mph1.9 kmh 30.27 in1025.1 mb - 0.00 in0.0 mm 0.00 in0.0 mm
09:50 PM 36.1°F2.3°C 33.8°F1.0°C 91% Calm Calm -- 30.27 in1025.1 mb - 0.00 in0.0 mm 0.00 in0.0 mm
10:00 PM 35.9°F2.2°C 33.6°F0.9°C 91% Calm Calm -- 30.28 in1025.4 mb - 0.00 in0.0 mm 0.00 in0.0 mm
10:10 PM 35.6°F2.0°C 33.5°F0.8°C 92% Calm Calm -- 30.28 in1025.4 mb - 0.00 in0.0 mm 0.00 in0.0 mm
10:20 PM 35.3°F1.8°C 33.2°F0.7°C 92% Calm Calm -- 30.28 in1025.4 mb - 0.00 in0.0 mm 0.00 in0.0 mm
10:30 PM 35.0°F1.7°C 32.9°F0.5°C 92% Calm Calm -- 30.28 in1025.4 mb - 0.00 in0.0 mm 0.00 in0.0 mm
10:40 PM 34.9°F1.6°C 33.1°F0.6°C 93% Calm Calm -- 30.27 in1025.1 mb - 0.00 in0.0 mm 0.00 in0.0 mm
10:50 PM 34.4°F1.3°C 32.3°F0.2°C 92% Calm Calm -- 30.27 in1025.1 mb - 0.00 in0.0 mm 0.00 in0.0 mm
11:00 PM 33.9°F1.1°C 32.1°F0.1°C 93% Calm Calm -- 30.28 in1025.4 mb - 0.00 in0.0 mm 0.00 in0.0 mm
11:10 PM 33.6°F0.9°C 31.7°F-0.2°C 93% Calm Calm -- 30.27 in1025.1 mb - 0.00 in0.0 mm 0.00 in0.0 mm
11:20 PM 33.7°F0.9°C 32.2°F0.1°C 94% Calm Calm -- 30.27 in1025.1 mb - 0.00 in0.0 mm 0.00 in0.0 mm
11:30 PM 33.5°F0.8°C 32.0°F0.0°C 94% Calm Calm -- 30.27 in1025.1 mb - 0.00 in0.0 mm 0.00 in0.0 mm
11:40 PM 32.1°F0.1°C 30.3°F-0.9°C 93% Calm Calm -- 30.27 in1025.1 mb - 0.00 in0.0 mm 0.00 in0.0 mm
11:50 PM 31.7°F-0.2°C 30.2°F-1.0°C 94% Calm Calm -- 30.27 in1025.1 mb - 0.00 in0.0 mm 0.00 in0.0 mm